createdAt,value
2019-03-26T00:02:14.107Z,7.57
2019-03-26T00:04:42.066Z,6.97
2019-03-26T00:07:09.949Z,6.63
2019-03-26T00:09:38.349Z,6.53
2019-03-26T00:12:06.249Z,6.97
2019-03-26T00:14:34.096Z,7.00
2019-03-26T00:17:02.069Z,7.20
2019-03-26T00:19:30.313Z,6.77
2019-03-26T00:21:58.422Z,6.87
2019-03-26T00:24:26.335Z,6.93
2019-03-26T00:26:54.380Z,7.07
2019-03-26T00:29:22.594Z,6.13
2019-03-26T00:31:50.522Z,6.60
2019-03-26T00:34:19.696Z,6.90
2019-03-26T00:36:47.922Z,6.17
2019-03-26T00:39:15.794Z,7.03
2019-03-26T00:41:43.682Z,7.60
2019-03-26T00:44:11.723Z,7.37
2019-03-26T00:46:40.730Z,7.47
2019-03-26T00:49:08.719Z,6.80
2019-03-26T00:51:36.724Z,7.43
2019-03-26T00:54:04.631Z,7.67
2019-03-26T00:56:32.602Z,7.17
2019-03-26T00:59:00.459Z,7.17
2019-03-26T01:01:28.296Z,7.97
2019-03-26T01:03:56.189Z,7.43
2019-03-26T01:06:25.497Z,7.30
2019-03-26T01:08:53.468Z,7.40
2019-03-26T01:11:21.352Z,7.50
2019-03-26T01:13:49.499Z,7.90
2019-03-26T01:16:17.420Z,7.07
2019-03-26T01:18:45.313Z,6.93
2019-03-26T01:21:13.339Z,6.80
2019-03-26T01:23:41.291Z,6.60
2019-03-26T01:26:09.238Z,7.27
2019-03-26T01:28:37.296Z,7.37
2019-03-26T01:31:05.311Z,7.77
2019-03-26T01:33:33.337Z,7.10
2019-03-26T01:36:01.209Z,6.87
2019-03-26T01:38:29.264Z,7.23
2019-03-26T01:40:57.960Z,7.60
2019-03-26T01:43:26.000Z,8.00
2019-03-26T01:45:53.855Z,7.83
2019-03-26T01:48:21.640Z,7.40
2019-03-26T01:50:49.538Z,7.70
2019-03-26T01:53:20.196Z,7.13
2019-03-26T01:55:47.646Z,7.10
2019-03-26T01:58:15.946Z,8.03
2019-03-26T02:00:43.910Z,7.03
2019-03-26T02:03:11.914Z,8.07
2019-03-26T02:05:40.116Z,7.80
2019-03-26T02:08:07.985Z,7.50
2019-03-26T02:10:36.129Z,7.50
2019-03-26T02:13:03.998Z,7.27
2019-03-26T02:15:33.297Z,7.10
2019-03-26T02:18:01.757Z,7.60
2019-03-26T02:20:30.125Z,7.47
2019-03-26T02:22:58.380Z,8.27
2019-03-26T02:25:26.358Z,7.90
2019-03-26T02:27:54.387Z,7.63
2019-03-26T02:30:22.419Z,7.47
2019-03-26T02:32:50.267Z,7.03
2019-03-26T02:35:19.358Z,7.80
2019-03-26T02:37:47.617Z,7.10
2019-03-26T02:40:15.678Z,7.37
2019-03-26T02:42:43.616Z,7.63
2019-03-26T02:45:11.624Z,7.13
2019-03-26T02:47:39.754Z,7.43
2019-03-26T02:50:08.123Z,7.60
2019-03-26T02:52:36.225Z,7.53
2019-03-26T02:55:04.549Z,7.43
2019-03-26T02:57:32.591Z,8.53
2019-03-26T03:00:00.671Z,7.77
2019-03-26T03:02:28.565Z,7.20
2019-03-26T03:04:56.738Z,7.93
2019-03-26T03:07:24.639Z,7.53
2019-03-26T03:09:52.650Z,7.77
2019-03-26T03:12:21.167Z,8.23
2019-03-26T03:14:49.161Z,8.13
2019-03-26T03:17:17.371Z,8.33
2019-03-26T03:19:45.277Z,7.63
2019-03-26T03:22:13.135Z,8.33
2019-03-26T03:24:41.140Z,9.17
2019-03-26T03:27:09.285Z,7.80
2019-03-26T03:29:37.190Z,8.17
2019-03-26T03:32:05.480Z,8.97
2019-03-26T03:34:33.408Z,8.23
2019-03-26T03:37:01.519Z,8.20
2019-03-26T03:39:29.943Z,8.00
2019-03-26T03:41:58.051Z,8.57
2019-03-26T03:44:25.898Z,9.30
2019-03-26T03:46:55.199Z,9.07
2019-03-26T03:49:25.721Z,8.47
2019-03-26T03:51:55.495Z,8.33
2019-03-26T03:54:23.567Z,8.73
2019-03-26T03:56:53.443Z,9.03
2019-03-26T03:59:23.299Z,8.30
2019-03-26T04:01:51.767Z,8.47
2019-03-26T04:04:19.846Z,8.70
2019-03-26T04:06:47.950Z,8.90
2019-03-26T04:09:16.054Z,8.67
2019-03-26T04:11:43.929Z,8.83
2019-03-26T04:14:11.844Z,7.90
2019-03-26T04:16:39.775Z,9.53
2019-03-26T04:19:07.614Z,9.73
2019-03-26T04:21:35.864Z,9.63
2019-03-26T04:24:03.845Z,8.77
2019-03-26T04:26:32.049Z,9.13
2019-03-26T04:29:00.081Z,9.07
2019-03-26T04:31:28.193Z,9.27
2019-03-26T04:33:56.053Z,9.53
2019-03-26T04:36:25.838Z,10.20
2019-03-26T04:38:53.733Z,10.77
2019-03-26T04:41:21.729Z,10.67
2019-03-26T04:43:49.845Z,9.83
2019-03-26T04:46:18.451Z,10.30
2019-03-26T04:48:46.591Z,9.83
2019-03-26T04:51:14.463Z,10.37
2019-03-26T04:53:42.346Z,9.43
2019-03-26T04:56:10.339Z,10.07
2019-03-26T04:58:39.036Z,8.93
2019-03-26T05:01:07.217Z,9.23
2019-03-26T05:03:35.160Z,9.57
2019-03-26T05:06:03.277Z,10.37
2019-03-26T05:08:31.153Z,9.47
2019-03-26T05:10:59.198Z,9.53
2019-03-26T05:13:27.081Z,9.47
2019-03-26T05:15:55.461Z,9.30
2019-03-26T05:18:24.467Z,8.93
2019-03-26T05:20:52.536Z,10.17
2019-03-26T05:23:20.419Z,9.90
2019-03-26T05:25:48.339Z,10.23
2019-03-26T05:28:16.521Z,11.30
2019-03-26T05:30:44.401Z,13.17
2019-03-26T05:33:12.281Z,11.53
2019-03-26T05:35:40.718Z,10.53
2019-03-26T05:38:08.876Z,9.30
2019-03-26T05:40:36.766Z,12.70
2019-03-26T05:43:05.802Z,10.40
2019-03-26T05:45:33.838Z,10.40
2019-03-26T05:48:01.845Z,10.03
2019-03-26T05:50:29.883Z,10.30
2019-03-26T05:52:57.918Z,10.23
2019-03-26T05:55:25.929Z,10.03
2019-03-26T05:57:53.835Z,10.13
2019-03-26T06:00:23.954Z,10.97
2019-03-26T06:02:52.395Z,11.37
2019-03-26T06:05:20.452Z,10.37
2019-03-26T06:07:48.272Z,10.10
2019-03-26T06:10:16.708Z,11.33
2019-03-26T06:12:44.749Z,11.30
2019-03-26T06:15:12.759Z,11.80
2019-03-26T06:17:41.007Z,11.40
2019-03-26T06:20:11.039Z,11.77
2019-03-26T06:22:39.003Z,11.80
2019-03-26T06:25:07.279Z,11.90
2019-03-26T06:27:35.270Z,12.70
2019-03-26T06:30:03.674Z,11.90
2019-03-26T06:32:31.640Z,12.13
2019-03-26T06:34:59.489Z,12.00
2019-03-26T06:37:27.501Z,10.63
2019-03-26T06:39:58.332Z,12.00
2019-03-26T06:42:25.565Z,11.63
2019-03-26T06:44:53.605Z,10.70
2019-03-26T06:47:21.514Z,11.27
2019-03-26T06:49:49.531Z,11.07
2019-03-26T06:52:17.432Z,11.70
2019-03-26T06:54:45.200Z,10.17
2019-03-26T06:57:13.192Z,10.27
2019-03-26T06:59:41.224Z,12.00
2019-03-26T07:02:09.167Z,11.23
2019-03-26T07:04:45.629Z,11.57
2019-03-26T07:07:14.594Z,10.67
2019-03-26T07:09:42.763Z,10.53
2019-03-26T07:12:10.975Z,12.63
2019-03-26T07:14:38.985Z,10.90
2019-03-26T07:17:06.886Z,10.67
2019-03-26T07:19:34.916Z,11.20
2019-03-26T07:22:02.834Z,11.47
2019-03-26T07:24:30.833Z,11.53
2019-03-26T07:26:59.044Z,11.00
2019-03-26T07:29:26.911Z,11.63
2019-03-26T07:31:55.051Z,11.27
2019-03-26T07:34:22.941Z,10.70
2019-03-26T07:36:51.220Z,12.07
2019-03-26T07:39:19.406Z,10.90
2019-03-26T07:41:47.442Z,10.87
2019-03-26T07:44:15.313Z,11.20
2019-03-26T07:46:43.267Z,11.10
2019-03-26T07:49:11.142Z,10.90
2019-03-26T07:51:39.313Z,11.63
2019-03-26T07:54:07.331Z,11.50
2019-03-26T07:56:35.550Z,10.67
2019-03-26T07:59:03.508Z,10.90
2019-03-26T08:01:31.492Z,11.67
2019-03-26T08:03:59.400Z,11.83
2019-03-26T08:06:27.421Z,11.87
2019-03-26T08:08:55.421Z,10.50
2019-03-26T08:11:23.283Z,10.57
2019-03-26T08:13:51.639Z,11.30
2019-03-26T08:16:19.532Z,10.67
2019-03-26T08:18:47.394Z,11.73
2019-03-26T08:21:15.260Z,10.53
2019-03-26T08:23:43.446Z,11.50
2019-03-26T08:26:11.363Z,11.60
2019-03-26T08:28:39.355Z,11.50
2019-03-26T08:31:07.372Z,10.53
2019-03-26T08:33:35.386Z,11.70
2019-03-26T08:36:03.691Z,10.60
2019-03-26T08:38:33.539Z,11.67
2019-03-26T08:41:01.573Z,11.40
2019-03-26T08:43:29.481Z,11.20
2019-03-26T08:45:57.359Z,11.40
2019-03-26T08:48:25.417Z,11.13
2019-03-26T08:50:53.348Z,11.20
2019-03-26T08:53:21.365Z,10.70
2019-03-26T08:55:50.491Z,10.40
2019-03-26T08:58:18.369Z,10.47
2019-03-26T09:01:22.317Z,11.10
2019-03-26T09:03:54.460Z,10.30
2019-03-26T09:06:23.643Z,10.77
2019-03-26T09:08:52.759Z,9.97
2019-03-26T09:11:20.774Z,9.97
2019-03-26T09:13:48.814Z,9.50
2019-03-26T09:16:16.958Z,8.47
2019-03-26T09:18:45.744Z,8.30
2019-03-26T09:21:13.864Z,9.77
2019-03-26T09:23:41.788Z,8.97
2019-03-26T09:26:09.767Z,8.43
2019-03-26T09:28:37.778Z,8.37
2019-03-26T09:31:05.859Z,8.97
2019-03-26T09:33:33.772Z,8.60
2019-03-26T09:36:02.040Z,8.67
2019-03-26T09:38:38.959Z,8.43
2019-03-26T09:40:59.759Z,7.00
2019-03-26T09:43:27.753Z,6.90
2019-03-26T09:45:56.113Z,7.33
2019-03-26T09:48:24.007Z,7.27
2019-03-26T09:50:54.004Z,7.80
2019-03-26T09:53:22.036Z,7.10
2019-03-26T09:55:50.045Z,6.40
2019-03-26T09:58:18.060Z,6.27
2019-03-26T10:00:45.998Z,6.47
2019-03-26T10:03:16.070Z,7.17
2019-03-26T10:05:45.179Z,6.30
2019-03-26T10:08:13.462Z,6.37
2019-03-26T10:10:41.935Z,6.83
2019-03-26T10:13:09.975Z,7.10
2019-03-26T10:15:38.055Z,6.10
2019-03-26T10:18:06.072Z,6.33
2019-03-26T10:20:33.940Z,7.00
2019-03-26T10:23:01.873Z,6.40
2019-03-26T10:25:29.768Z,6.17
2019-03-26T10:27:58.136Z,5.93
2019-03-26T10:30:34.118Z,7.00
2019-03-26T10:33:02.028Z,6.17
2019-03-26T10:35:29.912Z,6.20
2019-03-26T10:37:57.940Z,6.40
2019-03-26T10:40:33.629Z,5.63
2019-03-26T10:43:01.914Z,5.63
2019-03-26T10:45:30.285Z,5.10
2019-03-26T10:47:58.315Z,5.00
2019-03-26T10:50:26.785Z,6.30
2019-03-26T10:52:54.724Z,5.90
2019-03-26T10:55:22.484Z,5.90
2019-03-26T10:57:50.494Z,5.83
2019-03-26T11:00:20.876Z,6.97
2019-03-26T11:02:48.776Z,5.90
2019-03-26T11:05:17.118Z,5.00
2019-03-26T11:07:45.170Z,5.70
2019-03-26T11:10:13.442Z,5.43
2019-03-26T11:12:41.629Z,5.60
2019-03-26T11:15:11.232Z,4.73
2019-03-26T11:17:39.151Z,4.30
2019-03-26T11:20:07.979Z,4.80
2019-03-26T11:22:37.104Z,4.17
2019-03-26T11:25:05.670Z,4.97
2019-03-26T11:27:33.448Z,4.53
2019-03-26T11:30:01.557Z,5.30
2019-03-26T11:32:30.995Z,4.80
2019-03-26T11:34:58.932Z,4.47
2019-03-26T11:37:26.824Z,4.87
2019-03-26T11:39:58.539Z,4.37
2019-03-26T11:42:26.710Z,4.37
2019-03-26T11:44:54.924Z,4.50
2019-03-26T11:47:23.220Z,4.37
2019-03-26T11:49:52.376Z,4.30
2019-03-26T11:52:20.476Z,4.47
2019-03-26T11:54:48.323Z,4.47
2019-03-26T11:57:16.211Z,4.07
2019-03-26T11:59:43.957Z,5.07
2019-03-26T12:02:11.961Z,4.80
2019-03-26T12:04:40.252Z,4.90
2019-03-26T12:07:08.404Z,4.80
2019-03-26T12:09:46.233Z,4.80
2019-03-26T12:12:06.535Z,4.80
2019-03-26T12:14:34.546Z,4.23
2019-03-26T12:17:02.567Z,4.30
2019-03-26T12:19:30.433Z,4.30
2019-03-26T12:21:58.383Z,4.47
2019-03-26T12:24:26.297Z,3.90
2019-03-26T12:26:54.456Z,4.30
2019-03-26T12:29:23.125Z,3.97
2019-03-26T12:31:51.152Z,4.20
2019-03-26T12:34:19.176Z,4.30
2019-03-26T12:36:47.475Z,4.00
2019-03-26T12:39:15.455Z,3.80
2019-03-26T12:41:43.336Z,4.17
2019-03-26T12:44:11.418Z,4.43
2019-03-26T12:46:39.302Z,4.43
2019-03-26T12:49:07.390Z,3.57
2019-03-26T12:51:35.451Z,3.47
2019-03-26T12:54:03.566Z,4.33
2019-03-26T12:56:31.602Z,3.97
2019-03-26T12:58:59.454Z,3.60
2019-03-26T13:01:27.471Z,4.60
2019-03-26T13:03:55.525Z,4.37
2019-03-26T13:06:23.381Z,4.30
2019-03-26T13:08:51.417Z,4.73
2019-03-26T13:11:19.327Z,3.70
2019-03-26T13:13:48.248Z,3.87
2019-03-26T13:16:16.116Z,4.20
2019-03-26T13:18:44.006Z,4.07
2019-03-26T13:21:31.208Z,4.40
2019-03-26T13:23:59.075Z,4.20
2019-03-26T13:26:28.998Z,4.43
2019-03-26T13:28:57.237Z,4.20
2019-03-26T13:31:28.407Z,7.20
2019-03-26T13:33:56.493Z,12.47
2019-03-26T13:36:24.514Z,4.10
2019-03-26T13:38:52.563Z,4.17
2019-03-26T13:41:20.903Z,4.13
2019-03-26T13:43:48.660Z,3.70
2019-03-26T13:46:16.536Z,3.83
2019-03-26T13:48:44.400Z,6.33
2019-03-26T13:51:12.308Z,4.23
2019-03-26T13:53:40.472Z,3.33
2019-03-26T13:56:08.309Z,4.20
2019-03-26T13:58:36.178Z,3.60
2019-03-26T14:01:04.163Z,3.57
2019-03-26T14:03:32.581Z,3.23
2019-03-26T14:06:00.488Z,3.20
2019-03-26T14:08:28.400Z,3.27
2019-03-26T14:10:56.410Z,2.97
2019-03-26T14:13:24.434Z,3.47
2019-03-26T14:15:52.380Z,3.30
2019-03-26T14:18:20.393Z,3.47
2019-03-26T14:20:48.530Z,3.33
2019-03-26T14:23:16.850Z,3.03
2019-03-26T14:25:45.123Z,2.80
2019-03-26T14:28:14.050Z,2.50
2019-03-26T14:30:45.246Z,2.87
2019-03-26T14:33:13.638Z,3.27
2019-03-26T14:35:41.751Z,3.30
2019-03-26T14:38:09.591Z,3.50
2019-03-26T14:40:37.853Z,3.97
2019-03-26T14:43:05.872Z,3.40
2019-03-26T14:45:34.088Z,3.47
2019-03-26T14:48:02.294Z,3.40
2019-03-26T14:50:31.529Z,3.70
2019-03-26T14:52:59.550Z,2.93
2019-03-26T14:55:27.564Z,3.20
2019-03-26T14:57:55.450Z,3.20
2019-03-26T15:00:23.445Z,2.97
2019-03-26T15:02:51.457Z,2.70
2019-03-26T15:05:20.309Z,2.93
2019-03-26T15:07:48.060Z,3.63
2019-03-26T15:10:17.336Z,3.00
2019-03-26T15:12:45.549Z,2.57
2019-03-26T15:15:14.640Z,3.50
2019-03-26T15:17:42.519Z,3.50
2019-03-26T15:20:10.873Z,3.07
2019-03-26T15:22:38.914Z,2.50
2019-03-26T15:25:06.853Z,3.33
2019-03-26T15:27:34.969Z,3.57
2019-03-26T15:30:03.802Z,3.67
2019-03-26T15:32:31.854Z,3.37
2019-03-26T15:34:59.700Z,4.20
2019-03-26T15:37:27.770Z,3.47
2019-03-26T15:39:55.772Z,3.70
2019-03-26T15:42:24.667Z,3.53
2019-03-26T15:44:52.626Z,4.00
2019-03-26T15:47:20.560Z,4.50
2019-03-26T15:49:48.511Z,5.17
2019-03-26T15:52:16.425Z,4.03
2019-03-26T15:54:44.424Z,4.40
2019-03-26T15:57:12.544Z,4.77
2019-03-26T15:59:40.559Z,4.20
2019-03-26T16:02:09.593Z,4.43
2019-03-26T16:04:37.656Z,4.97
2019-03-26T16:07:05.734Z,4.90
2019-03-26T16:09:33.814Z,4.60
2019-03-26T16:12:01.836Z,4.37
2019-03-26T16:14:32.177Z,3.60
2019-03-26T16:17:00.063Z,3.47
2019-03-26T16:19:32.912Z,5.70
2019-03-26T16:21:58.547Z,5.90
2019-03-26T16:24:26.306Z,6.50
2019-03-26T16:26:54.200Z,5.87
2019-03-26T16:29:22.186Z,6.80
2019-03-26T16:31:51.129Z,6.53
2019-03-26T16:34:18.993Z,6.17
2019-03-26T16:36:58.753Z,5.80
2019-03-26T16:39:16.970Z,6.33
2019-03-26T16:41:49.347Z,7.43
2019-03-26T16:44:14.818Z,5.97
2019-03-26T16:46:42.747Z,6.60
2019-03-26T16:49:10.671Z,6.67
2019-03-26T16:51:38.702Z,6.80
2019-03-26T16:54:06.632Z,6.60
2019-03-26T16:56:35.148Z,8.07
2019-03-26T16:59:03.170Z,9.00
2019-03-26T17:01:31.312Z,7.87
2019-03-26T17:03:59.840Z,8.53
2019-03-26T17:06:28.067Z,9.27
2019-03-26T17:08:56.562Z,8.73
2019-03-26T17:11:24.714Z,8.27
2019-03-26T17:13:52.773Z,9.43
2019-03-26T17:16:20.775Z,9.10
2019-03-26T17:18:48.838Z,9.00
2019-03-26T17:21:18.457Z,9.17
2019-03-26T17:23:46.774Z,8.97
2019-03-26T17:26:15.597Z,9.17
2019-03-26T17:28:43.419Z,9.93
2019-03-26T17:31:11.428Z,8.73
2019-03-26T17:33:39.268Z,9.07
2019-03-26T17:36:08.506Z,8.50
2019-03-26T17:38:36.394Z,9.87
2019-03-26T17:41:04.410Z,8.90
2019-03-26T17:43:32.439Z,8.47
2019-03-26T17:46:00.389Z,8.73
2019-03-26T17:48:28.402Z,9.60
2019-03-26T17:50:57.432Z,9.37
2019-03-26T17:53:25.469Z,9.80
2019-03-26T17:55:53.804Z,9.10
2019-03-26T17:58:21.841Z,9.63
2019-03-26T18:00:50.258Z,9.53
2019-03-26T18:03:26.418Z,9.10
2019-03-26T18:05:48.229Z,8.00
2019-03-26T18:08:16.173Z,10.33
2019-03-26T18:10:44.069Z,8.90
2019-03-26T18:13:11.946Z,9.53
2019-03-26T18:15:39.970Z,8.93
2019-03-26T18:18:08.191Z,8.57
2019-03-26T18:20:36.198Z,8.97
2019-03-26T18:23:04.137Z,9.40
2019-03-26T18:25:32.262Z,9.10
2019-03-26T18:28:00.111Z,8.90
2019-03-26T18:30:28.135Z,8.70
2019-03-26T18:32:56.489Z,8.50
2019-03-26T18:35:24.620Z,9.87
2019-03-26T18:37:52.467Z,8.53
2019-03-26T18:40:20.507Z,9.00
2019-03-26T18:42:48.515Z,9.90
2019-03-26T18:45:16.600Z,10.47
2019-03-26T18:47:44.619Z,8.40
2019-03-26T18:50:13.061Z,8.20
2019-03-26T18:52:41.264Z,8.37
2019-03-26T18:55:09.528Z,9.20
2019-03-26T18:57:38.530Z,9.60
2019-03-26T19:00:07.247Z,10.10
2019-03-26T19:02:36.883Z,9.37
2019-03-26T19:05:06.193Z,11.10
2019-03-26T19:07:34.050Z,9.73
2019-03-26T19:10:02.046Z,9.57
2019-03-26T19:12:30.310Z,8.80
2019-03-26T19:14:58.538Z,9.10
2019-03-26T19:17:27.681Z,9.90
2019-03-26T19:19:58.261Z,8.87
2019-03-26T19:22:25.897Z,9.33
2019-03-26T19:24:54.098Z,9.70
2019-03-26T19:27:22.176Z,9.80
2019-03-26T19:29:51.802Z,8.80
2019-03-26T19:32:21.450Z,9.57
2019-03-26T19:34:49.307Z,9.87
2019-03-26T19:37:18.225Z,9.00
2019-03-26T19:39:46.197Z,9.47
2019-03-26T19:42:15.135Z,8.97
2019-03-26T19:44:43.493Z,8.97
2019-03-26T19:47:11.371Z,10.30
2019-03-26T19:49:39.563Z,10.47
2019-03-26T19:52:07.522Z,9.20
2019-03-26T19:54:35.477Z,9.93
2019-03-26T19:57:03.641Z,10.37
2019-03-26T19:59:31.851Z,9.37
2019-03-26T20:02:02.606Z,10.67
2019-03-26T20:04:34.288Z,9.60
2019-03-26T20:07:02.334Z,9.70
2019-03-26T20:09:30.438Z,9.40
2019-03-26T20:11:59.254Z,10.27
2019-03-26T20:14:27.262Z,8.77
2019-03-26T20:16:55.294Z,9.60
2019-03-26T20:19:23.746Z,9.93
2019-03-26T20:21:51.738Z,9.77
2019-03-26T20:24:19.644Z,9.10
2019-03-26T20:26:47.690Z,10.50
2019-03-26T20:29:16.451Z,12.70
2019-03-26T20:31:44.347Z,11.10
2019-03-26T20:34:12.443Z,10.80
2019-03-26T20:36:40.480Z,10.90
2019-03-26T20:39:08.924Z,9.93
2019-03-26T20:41:37.236Z,9.70
2019-03-26T20:44:05.218Z,10.93
2019-03-26T20:46:33.074Z,8.87
2019-03-26T20:49:01.235Z,10.77
2019-03-26T20:51:29.193Z,11.67
2019-03-26T20:53:58.247Z,15.80
2019-03-26T20:56:26.517Z,11.50
2019-03-26T20:58:55.537Z,9.67
2019-03-26T21:01:24.142Z,11.57
2019-03-26T21:03:52.350Z,10.80
2019-03-26T21:06:20.383Z,11.90
2019-03-26T21:08:48.719Z,11.33
2019-03-26T21:11:16.578Z,10.43
2019-03-26T21:13:50.610Z,10.93
2019-03-26T21:16:14.650Z,12.87
2019-03-26T21:18:42.875Z,10.63
2019-03-26T21:21:10.994Z,12.63
2019-03-26T21:23:39.422Z,13.60
2019-03-26T21:26:07.291Z,13.60
2019-03-26T21:28:35.155Z,13.20
2019-03-26T21:31:03.169Z,12.10
2019-03-26T21:33:31.072Z,11.83
2019-03-26T21:35:59.055Z,12.73
2019-03-26T21:38:27.106Z,13.57
2019-03-26T21:40:55.014Z,12.87
2019-03-26T21:43:23.351Z,11.83
2019-03-26T21:45:51.836Z,12.30
2019-03-26T21:48:19.986Z,13.80
2019-03-26T21:50:47.990Z,14.37
2019-03-26T21:53:16.169Z,13.23
2019-03-26T21:55:44.254Z,12.67
2019-03-26T21:58:12.099Z,12.03
2019-03-26T22:00:40.077Z,11.43
2019-03-26T22:03:08.026Z,13.47
2019-03-26T22:05:36.174Z,13.33
2019-03-26T22:08:04.285Z,12.67
2019-03-26T22:10:32.401Z,12.90
2019-03-26T22:13:00.625Z,21.13
2019-03-26T22:15:29.183Z,26.40
2019-03-26T22:17:57.215Z,24.20
2019-03-26T22:20:25.145Z,19.43
2019-03-26T22:22:53.797Z,16.77
2019-03-26T22:25:21.873Z,13.13
2019-03-26T22:27:49.872Z,11.53
2019-03-26T22:30:19.396Z,11.37
2019-03-26T22:32:47.443Z,11.13
2019-03-26T22:35:16.416Z,11.33
2019-03-26T22:37:44.325Z,11.17
2019-03-26T22:40:12.690Z,10.80
2019-03-26T22:42:40.529Z,11.70
2019-03-26T22:45:09.077Z,10.93
2019-03-26T22:47:37.790Z,10.77
2019-03-26T22:50:08.062Z,11.17
2019-03-26T22:52:35.894Z,10.87
2019-03-26T22:55:04.786Z,9.83
2019-03-26T22:57:32.710Z,10.60
2019-03-26T23:00:00.675Z,10.73
2019-03-26T23:02:28.923Z,10.57
2019-03-26T23:04:57.392Z,10.87
2019-03-26T23:07:25.561Z,10.27
2019-03-26T23:09:54.602Z,10.73
2019-03-26T23:12:22.541Z,11.50
2019-03-26T23:14:51.251Z,11.13
2019-03-26T23:17:19.506Z,11.03
2019-03-26T23:19:47.772Z,11.53
2019-03-26T23:22:15.944Z,11.30
2019-03-26T23:24:43.913Z,11.30
2019-03-26T23:27:11.831Z,11.57
2019-03-26T23:29:39.790Z,11.17
2019-03-26T23:32:07.794Z,10.23
2019-03-26T23:34:35.997Z,10.50
2019-03-26T23:37:03.992Z,9.77
2019-03-26T23:39:31.864Z,9.57
2019-03-26T23:41:59.786Z,10.23
2019-03-26T23:44:27.838Z,9.47
2019-03-26T23:46:55.565Z,9.27
2019-03-26T23:49:23.364Z,9.07
2019-03-26T23:51:51.255Z,10.37
2019-03-26T23:54:19.184Z,10.33
2019-03-26T23:56:48.173Z,10.93
2019-03-26T23:59:17.208Z,9.87
